createdAt,value
2022-12-03T00:00:44.716Z,0.00
2022-12-03T00:01:45.751Z,0.00
2022-12-03T00:02:44.608Z,0.00
2022-12-03T00:03:44.654Z,0.00
2022-12-03T00:04:44.455Z,0.00
2022-12-03T00:05:48.803Z,0.00
2022-12-03T00:06:46.659Z,0.00
2022-12-03T00:07:59.839Z,0.00
2022-12-03T00:08:44.670Z,0.00
2022-12-03T00:09:44.670Z,0.00
2022-12-03T00:10:51.809Z,0.00
2022-12-03T00:11:47.424Z,0.00
2022-12-03T00:12:51.635Z,0.00
2022-12-03T00:13:44.393Z,0.00
2022-12-03T00:14:45.114Z,0.00
2022-12-03T00:15:51.923Z,0.00
2022-12-03T00:16:47.587Z,0.00
2022-12-03T00:17:44.347Z,0.00
2022-12-03T00:18:44.327Z,0.00
2022-12-03T00:19:44.562Z,0.00
2022-12-03T00:20:45.297Z,0.00
2022-12-03T00:21:44.513Z,0.00
2022-12-03T00:22:44.582Z,0.00
2022-12-03T00:23:45.266Z,0.00
2022-12-03T00:24:44.657Z,0.00
2022-12-03T00:25:47.262Z,0.00
2022-12-03T00:26:47.726Z,0.00
2022-12-03T00:28:08.503Z,0.00
2022-12-03T00:28:45.234Z,0.00
2022-12-03T00:29:44.204Z,0.00
2022-12-03T00:30:44.257Z,0.00
2022-12-03T00:31:44.243Z,0.00
2022-12-03T00:32:44.168Z,0.00
2022-12-03T00:33:51.418Z,0.00
2022-12-03T00:34:44.136Z,0.00
2022-12-03T00:35:44.163Z,0.00
2022-12-03T00:36:45.129Z,0.00
2022-12-03T00:37:44.178Z,0.00
2022-12-03T00:38:45.138Z,0.00
2022-12-03T00:39:47.167Z,0.00
2022-12-03T00:40:47.356Z,0.00
2022-12-03T00:41:44.107Z,0.00
2022-12-03T00:42:44.079Z,0.00
2022-12-03T00:43:44.083Z,0.00
2022-12-03T00:44:51.542Z,0.00
2022-12-03T00:45:47.080Z,0.00
2022-12-03T00:46:44.082Z,0.00
2022-12-03T00:47:44.505Z,0.00
2022-12-03T00:48:44.252Z,0.00
2022-12-03T00:49:44.034Z,0.00
2022-12-03T00:50:45.274Z,0.00
2022-12-03T00:51:45.272Z,0.00
2022-12-03T00:52:44.030Z,0.00
2022-12-03T00:53:43.987Z,0.00
2022-12-03T00:54:43.983Z,0.00
2022-12-03T00:55:45.215Z,0.00
2022-12-03T00:56:59.176Z,0.00
2022-12-03T00:57:43.957Z,0.00
2022-12-03T00:58:51.048Z,0.00
2022-12-03T00:59:44.128Z,0.00
2022-12-03T01:00:43.883Z,0.00
2022-12-03T01:01:44.238Z,0.00
2022-12-03T01:02:59.105Z,0.00
2022-12-03T01:03:44.136Z,0.00
2022-12-03T01:04:44.158Z,0.00
2022-12-03T01:05:43.863Z,0.00
2022-12-03T01:06:45.073Z,0.00
2022-12-03T01:07:44.929Z,0.00
2022-12-03T01:08:44.055Z,0.00
2022-12-03T01:09:45.101Z,0.00
2022-12-03T01:10:43.795Z,0.00
2022-12-03T01:11:44.795Z,0.00
2022-12-03T01:12:45.030Z,0.00
2022-12-03T01:13:44.006Z,0.00
2022-12-03T01:14:43.997Z,0.00
2022-12-03T01:15:51.257Z,0.00
2022-12-03T01:16:43.947Z,0.00
2022-12-03T01:17:43.740Z,0.00
2022-12-03T01:18:43.719Z,0.00
2022-12-03T01:19:50.840Z,0.00
2022-12-03T01:20:46.742Z,0.00
2022-12-03T01:21:51.145Z,0.00
2022-12-03T01:22:43.900Z,0.00
2022-12-03T01:23:51.191Z,0.00
2022-12-03T01:24:44.125Z,0.00
2022-12-03T01:25:43.896Z,0.00
2022-12-03T01:26:43.857Z,0.00
2022-12-03T01:27:43.611Z,0.00
2022-12-03T01:28:43.817Z,0.00
2022-12-03T01:29:43.876Z,0.00
2022-12-03T01:30:43.606Z,0.00
2022-12-03T01:31:43.619Z,0.00
2022-12-03T01:32:43.573Z,0.00
2022-12-03T01:33:43.560Z,0.00
2022-12-03T01:34:44.595Z,0.00
2022-12-03T01:35:43.786Z,0.00
2022-12-03T01:36:44.760Z,0.00
2022-12-03T01:37:43.767Z,0.00
2022-12-03T01:38:43.729Z,0.00
2022-12-03T01:39:43.718Z,0.00
2022-12-03T01:40:43.721Z,0.00
2022-12-03T01:41:50.760Z,0.00
2022-12-03T01:42:43.680Z,0.00
2022-12-03T01:43:43.475Z,0.00
2022-12-03T01:44:43.677Z,0.00
2022-12-03T01:45:43.484Z,0.00
2022-12-03T01:46:43.489Z,0.00
2022-12-03T01:47:43.449Z,0.00
2022-12-03T01:48:43.630Z,0.00
2022-12-03T01:49:46.674Z,0.00
2022-12-03T01:50:43.387Z,0.00
2022-12-03T01:51:46.623Z,0.00
2022-12-03T01:52:44.602Z,0.00
2022-12-03T01:53:43.591Z,0.00
2022-12-03T01:54:43.338Z,0.00
2022-12-03T01:55:48.800Z,0.00
2022-12-03T01:56:43.594Z,0.00
2022-12-03T01:57:44.555Z,0.00
2022-12-03T01:58:44.530Z,0.00
2022-12-03T01:59:43.544Z,0.00
2022-12-03T02:00:43.505Z,0.00
2022-12-03T02:01:43.343Z,0.00
2022-12-03T02:02:43.320Z,0.00
2022-12-03T02:03:43.302Z,0.00
2022-12-03T02:04:43.221Z,0.00
2022-12-03T02:05:43.447Z,0.00
2022-12-03T02:06:46.253Z,0.00
2022-12-03T02:07:43.255Z,0.00
2022-12-03T02:08:43.200Z,0.00
2022-12-03T02:09:50.637Z,0.00
2022-12-03T02:10:46.419Z,0.00
2022-12-03T02:11:50.724Z,0.00
2022-12-03T02:12:43.318Z,0.00
2022-12-03T02:13:43.156Z,0.00
2022-12-03T02:14:44.121Z,0.00
2022-12-03T02:15:50.363Z,0.00
2022-12-03T02:16:50.217Z,0.00
2022-12-03T02:17:58.579Z,0.00
2022-12-03T02:18:43.112Z,0.00
2022-12-03T02:19:44.367Z,0.00
2022-12-03T02:20:43.271Z,0.00
2022-12-03T02:21:44.079Z,0.00
2022-12-03T02:22:58.352Z,0.00
2022-12-03T02:23:46.328Z,0.00
2022-12-03T02:24:43.273Z,0.00
2022-12-03T02:25:43.002Z,0.00
2022-12-03T02:26:50.310Z,0.00
2022-12-03T02:27:58.391Z,0.00
2022-12-03T02:28:45.982Z,0.00
2022-12-03T02:29:43.014Z,0.00
2022-12-03T02:30:45.987Z,0.00
2022-12-03T02:31:50.371Z,0.00
2022-12-03T02:32:42.929Z,0.00
2022-12-03T02:33:43.167Z,0.00
2022-12-03T02:34:50.131Z,0.00
2022-12-03T02:35:50.171Z,0.00
2022-12-03T02:36:49.902Z,0.00
2022-12-03T02:37:50.934Z,0.00
2022-12-03T02:38:50.136Z,0.00
2022-12-03T02:39:45.938Z,0.00
2022-12-03T02:40:42.856Z,0.00
2022-12-03T02:41:44.124Z,0.00
2022-12-03T02:43:11.877Z,0.00
2022-12-03T02:43:42.799Z,0.00
2022-12-03T02:44:42.840Z,0.00
2022-12-03T02:45:42.794Z,0.00
2022-12-03T02:46:43.089Z,0.00
2022-12-03T02:47:50.022Z,0.00
2022-12-03T02:48:42.774Z,0.00
2022-12-03T02:49:51.037Z,0.00
2022-12-03T02:50:49.825Z,0.00
2022-12-03T02:52:17.819Z,0.00
2022-12-03T02:52:57.234Z,0.00
2022-12-03T02:53:49.969Z,0.00
2022-12-03T02:54:50.942Z,0.00
2022-12-03T02:55:50.777Z,0.00
2022-12-03T02:56:45.926Z,0.00
2022-12-03T02:57:45.958Z,0.00
2022-12-03T02:58:43.674Z,0.00
2022-12-03T02:59:50.712Z,0.00
2022-12-03T03:00:42.678Z,0.00
2022-12-03T03:01:42.681Z,0.00
2022-12-03T03:02:49.653Z,0.00
2022-12-03T03:03:45.888Z,0.00
2022-12-03T03:04:42.594Z,0.00
2022-12-03T03:05:42.599Z,0.00
2022-12-03T03:06:42.643Z,0.00
2022-12-03T03:07:42.638Z,0.00
2022-12-03T03:08:49.828Z,0.00
2022-12-03T03:09:43.562Z,0.00
2022-12-03T03:10:43.794Z,0.00
2022-12-03T03:11:42.798Z,0.00
2022-12-03T03:12:42.550Z,0.00
2022-12-03T03:13:45.546Z,0.00
2022-12-03T03:14:49.760Z,0.00
2022-12-03T03:15:42.511Z,0.00
2022-12-03T03:16:45.597Z,0.00
2022-12-03T03:17:42.747Z,0.00
2022-12-03T03:18:42.453Z,0.00
2022-12-03T03:19:42.471Z,0.00
2022-12-03T03:20:49.703Z,0.00
2022-12-03T03:21:42.688Z,0.00
2022-12-03T03:22:42.591Z,0.00
2022-12-03T03:23:49.674Z,0.00
2022-12-03T03:24:42.614Z,0.00
2022-12-03T03:25:45.675Z,0.00
2022-12-03T03:26:43.431Z,0.00
2022-12-03T03:27:42.404Z,0.00
2022-12-03T03:28:42.360Z,0.00
2022-12-03T03:29:42.585Z,0.00
2022-12-03T03:30:42.320Z,0.00
2022-12-03T03:31:43.443Z,0.00
2022-12-03T03:32:42.331Z,0.00
2022-12-03T03:33:42.340Z,0.00
2022-12-03T03:35:03.582Z,0.00
2022-12-03T03:35:42.504Z,0.00
2022-12-03T03:36:45.526Z,0.00
2022-12-03T03:37:43.285Z,0.00
2022-12-03T03:38:42.507Z,0.00
2022-12-03T03:39:42.543Z,0.00
2022-12-03T03:40:42.257Z,0.00
2022-12-03T03:42:03.233Z,0.00
2022-12-03T03:42:42.424Z,0.00
2022-12-03T03:43:42.210Z,0.00
2022-12-03T03:44:42.213Z,0.00
2022-12-03T03:45:49.405Z,0.00
2022-12-03T03:46:42.431Z,0.00
2022-12-03T03:48:03.399Z,0.00
2022-12-03T03:48:42.138Z,0.00
2022-12-03T03:49:42.382Z,0.00
2022-12-03T03:50:43.150Z,0.00
2022-12-03T03:51:45.395Z,0.00
2022-12-03T03:52:42.366Z,0.00
2022-12-03T03:53:49.578Z,0.00
2022-12-03T03:54:42.339Z,0.00
2022-12-03T03:55:42.316Z,0.00
2022-12-03T03:56:42.320Z,0.00
2022-12-03T03:57:42.277Z,0.00
2022-12-03T03:58:57.316Z,0.00
2022-12-03T03:59:42.308Z,0.00
2022-12-03T04:01:06.108Z,0.00
2022-12-03T04:01:45.290Z,0.00
2022-12-03T04:02:43.033Z,0.00
2022-12-03T04:03:45.094Z,0.00
2022-12-03T04:04:57.504Z,0.00
2022-12-03T04:05:42.269Z,0.00
2022-12-03T04:06:41.962Z,0.00
2022-12-03T04:07:43.004Z,0.00
2022-12-03T04:08:42.173Z,0.00
2022-12-03T04:09:42.144Z,0.00
2022-12-03T04:10:46.215Z,0.00
2022-12-03T04:11:41.942Z,0.00
2022-12-03T04:12:49.065Z,0.00
2022-12-03T04:13:43.115Z,0.00
2022-12-03T04:14:42.114Z,0.00
2022-12-03T04:15:41.856Z,0.00
2022-12-03T04:16:42.157Z,0.00
2022-12-03T04:17:42.068Z,0.00
2022-12-03T04:18:41.863Z,0.00
2022-12-03T04:19:42.035Z,0.00
2022-12-03T04:20:42.053Z,0.00
2022-12-03T04:21:42.070Z,0.00
2022-12-03T04:22:45.050Z,0.00
2022-12-03T04:23:45.045Z,0.00
2022-12-03T04:24:45.035Z,0.00
2022-12-03T04:25:43.020Z,0.00
2022-12-03T04:26:41.771Z,0.00
2022-12-03T04:27:42.014Z,0.00
2022-12-03T04:28:41.977Z,0.00
2022-12-03T04:29:44.747Z,0.00
2022-12-03T04:30:42.774Z,0.00
2022-12-03T04:31:56.955Z,0.00
2022-12-03T04:32:42.752Z,0.00
2022-12-03T04:33:41.934Z,0.00
2022-12-03T04:34:41.917Z,0.00
2022-12-03T04:35:44.781Z,0.00
2022-12-03T04:36:42.862Z,0.00
2022-12-03T04:37:41.870Z,0.00
2022-12-03T04:38:41.881Z,0.00
2022-12-03T04:39:41.615Z,0.00
2022-12-03T04:40:44.693Z,0.00
2022-12-03T04:41:44.603Z,0.00
2022-12-03T04:42:41.811Z,0.00
2022-12-03T04:43:41.601Z,0.00
2022-12-03T04:44:42.593Z,0.00
2022-12-03T04:45:41.864Z,0.00
2022-12-03T04:46:42.804Z,0.00
2022-12-03T04:47:41.551Z,0.00
2022-12-03T04:48:48.689Z,0.00
2022-12-03T04:49:41.553Z,0.00
2022-12-03T04:50:42.514Z,0.00
2022-12-03T04:51:41.738Z,0.00
2022-12-03T04:52:41.494Z,0.00
2022-12-03T04:53:46.370Z,0.00
2022-12-03T04:54:44.513Z,0.00
2022-12-03T04:55:41.702Z,0.00
2022-12-03T04:56:41.762Z,0.00
2022-12-03T04:57:48.594Z,0.00
2022-12-03T04:58:41.672Z,0.00
2022-12-03T04:59:44.699Z,0.00
2022-12-03T05:00:41.655Z,0.00
2022-12-03T05:01:41.461Z,0.00
2022-12-03T05:02:41.532Z,0.00
2022-12-03T05:03:41.363Z,0.00
2022-12-03T05:04:41.367Z,0.00
2022-12-03T05:05:41.604Z,0.00
2022-12-03T05:06:42.610Z,0.00
2022-12-03T05:07:41.353Z,0.00
2022-12-03T05:08:41.318Z,0.00
2022-12-03T05:09:42.305Z,0.00
2022-12-03T05:10:41.339Z,0.00
2022-12-03T05:11:41.512Z,0.00
2022-12-03T05:12:41.523Z,0.00
2022-12-03T05:13:42.958Z,0.00
2022-12-03T05:14:41.511Z,0.00
2022-12-03T05:15:42.234Z,0.00
2022-12-03T05:16:41.308Z,0.00
2022-12-03T05:17:44.498Z,0.00
2022-12-03T05:18:42.469Z,0.00
2022-12-03T05:19:44.445Z,0.00
2022-12-03T05:20:53.213Z,0.00
2022-12-03T05:21:42.428Z,0.00
2022-12-03T05:22:42.434Z,0.00
2022-12-03T05:23:41.371Z,0.00
2022-12-03T05:24:41.170Z,0.00
2022-12-03T05:25:48.446Z,0.00
2022-12-03T05:26:44.169Z,0.00
2022-12-03T05:27:41.156Z,0.00
2022-12-03T05:29:03.131Z,0.00
2022-12-03T05:29:44.180Z,0.00
2022-12-03T05:30:42.377Z,0.00
2022-12-03T05:31:42.096Z,0.00
2022-12-03T05:32:41.084Z,0.00
2022-12-03T05:33:44.653Z,0.00
2022-12-03T05:34:56.510Z,0.00
2022-12-03T05:35:41.064Z,0.00
2022-12-03T05:36:41.024Z,0.00
2022-12-03T05:37:56.491Z,0.00
2022-12-03T05:38:41.266Z,0.00
2022-12-03T05:39:41.001Z,0.00
2022-12-03T05:40:41.241Z,0.00
2022-12-03T05:41:41.231Z,0.00
2022-12-03T05:42:48.326Z,0.00
2022-12-03T05:44:01.991Z,0.00
2022-12-03T05:44:44.241Z,0.00
2022-12-03T05:45:41.987Z,0.00
2022-12-03T05:46:40.963Z,0.00
2022-12-03T05:47:41.131Z,0.00
2022-12-03T05:48:48.045Z,0.00
2022-12-03T05:49:41.150Z,0.00
2022-12-03T05:50:41.968Z,0.00
2022-12-03T05:51:48.022Z,0.00
2022-12-03T05:52:40.874Z,0.00
2022-12-03T05:53:48.060Z,0.00
2022-12-03T05:54:41.082Z,0.00
2022-12-03T05:55:41.071Z,0.00
2022-12-03T05:56:40.815Z,0.00
2022-12-03T05:57:56.446Z,0.00
2022-12-03T05:58:41.813Z,0.00
2022-12-03T05:59:41.802Z,0.00
2022-12-03T06:00:43.049Z,0.00
2022-12-03T06:01:40.779Z,0.00
2022-12-03T06:02:41.056Z,0.00
2022-12-03T06:03:41.029Z,0.00
2022-12-03T06:05:05.013Z,0.00
2022-12-03T06:05:40.745Z,0.00
2022-12-03T06:06:40.979Z,0.00
2022-12-03T06:07:41.018Z,0.00
2022-12-03T06:08:40.917Z,0.00
2022-12-03T06:09:40.711Z,0.00
2022-12-03T06:10:43.707Z,0.00
2022-12-03T06:11:40.922Z,0.00
2022-12-03T06:12:40.652Z,0.00
2022-12-03T06:13:48.177Z,0.00
2022-12-03T06:14:41.875Z,0.00
2022-12-03T06:15:44.031Z,0.00
2022-12-03T06:16:41.905Z,0.00
2022-12-03T06:17:40.634Z,0.00
2022-12-03T06:18:43.850Z,0.00
2022-12-03T06:19:41.602Z,0.00
2022-12-03T06:20:40.559Z,0.00
2022-12-03T06:21:40.551Z,0.00
2022-12-03T06:22:40.604Z,0.00
2022-12-03T06:23:40.535Z,0.00
2022-12-03T06:24:43.827Z,0.00
2022-12-03T06:25:40.548Z,0.00
2022-12-03T06:26:56.144Z,0.00
2022-12-03T06:27:40.758Z,0.00
2022-12-03T06:28:40.714Z,0.00
2022-12-03T06:29:40.727Z,0.00
2022-12-03T06:30:40.698Z,0.00
2022-12-03T06:31:43.769Z,0.00
2022-12-03T06:32:40.674Z,0.00
2022-12-03T06:33:40.460Z,0.00
2022-12-03T06:34:40.421Z,0.00
2022-12-03T06:35:40.664Z,0.00
2022-12-03T06:36:41.670Z,0.00
2022-12-03T06:37:40.624Z,0.00
2022-12-03T06:38:40.629Z,0.00
2022-12-03T06:39:40.376Z,0.00
2022-12-03T06:40:40.356Z,0.00
2022-12-03T06:41:40.356Z,0.00
2022-12-03T06:42:43.585Z,0.00
2022-12-03T06:43:40.580Z,0.00
2022-12-03T06:44:40.584Z,0.00
2022-12-03T06:45:44.627Z,0.00
2022-12-03T06:46:42.361Z,0.00
2022-12-03T06:47:41.559Z,0.00
2022-12-03T06:48:40.507Z,0.00
2022-12-03T06:49:40.482Z,0.00
2022-12-03T06:50:40.252Z,0.00
2022-12-03T06:51:40.260Z,0.00
2022-12-03T06:52:41.248Z,0.00
2022-12-03T06:53:47.673Z,0.00
2022-12-03T06:54:43.233Z,0.00
2022-12-03T06:55:40.240Z,0.00
2022-12-03T06:56:45.379Z,0.00
2022-12-03T06:57:40.200Z,0.00
2022-12-03T06:58:40.414Z,0.00
2022-12-03T06:59:43.195Z,0.00
2022-12-03T07:00:55.691Z,0.00
2022-12-03T07:01:40.232Z,0.00
2022-12-03T07:02:40.207Z,0.00
2022-12-03T07:03:43.183Z,0.00
2022-12-03T07:04:46.277Z,0.00
2022-12-03T07:06:02.330Z,0.00
2022-12-03T07:06:40.140Z,0.00
2022-12-03T07:07:41.405Z,0.00
2022-12-03T07:08:41.352Z,0.00
2022-12-03T07:09:40.055Z,0.00
2022-12-03T07:10:40.060Z,0.00
2022-12-03T07:11:40.064Z,0.00
2022-12-03T07:12:40.303Z,0.00
2022-12-03T07:13:40.289Z,0.00
2022-12-03T07:14:41.245Z,0.00
2022-12-03T07:15:40.414Z,5.62
2022-12-03T07:16:43.464Z,5.62
2022-12-03T07:17:39.989Z,5.62
2022-12-03T07:18:43.284Z,5.62
2022-12-03T07:19:40.974Z,5.62
2022-12-03T07:20:40.994Z,5.62
2022-12-03T07:21:42.991Z,5.62
2022-12-03T07:22:40.190Z,5.62
2022-12-03T07:23:40.930Z,5.62
2022-12-03T07:24:42.959Z,5.62
2022-12-03T07:25:42.923Z,5.62
2022-12-03T07:26:40.913Z,5.62
2022-12-03T07:27:40.176Z,5.62
2022-12-03T07:28:42.903Z,5.62
2022-12-03T07:29:42.886Z,11.25
2022-12-03T07:30:42.905Z,11.25
2022-12-03T07:31:40.134Z,11.25
2022-12-03T07:32:55.212Z,11.25
2022-12-03T07:33:40.182Z,11.25
2022-12-03T07:34:40.062Z,11.25
2022-12-03T07:35:40.809Z,11.25
2022-12-03T07:36:43.084Z,11.25
2022-12-03T07:37:39.793Z,11.25
2022-12-03T07:38:39.790Z,11.25
2022-12-03T07:39:40.001Z,16.88
2022-12-03T07:40:39.778Z,16.88
2022-12-03T07:41:39.739Z,16.88
2022-12-03T07:42:39.779Z,16.88
2022-12-03T07:43:40.744Z,16.88
2022-12-03T07:44:39.762Z,16.88
2022-12-03T07:45:40.717Z,16.88
2022-12-03T07:46:39.978Z,16.88
2022-12-03T07:47:40.916Z,16.88
2022-12-03T07:48:39.912Z,16.88
2022-12-03T07:49:40.908Z,16.88
2022-12-03T07:50:39.700Z,16.88
2022-12-03T07:51:40.660Z,16.88
2022-12-03T07:52:46.891Z,16.88
2022-12-03T07:53:42.658Z,16.88
2022-12-03T07:54:39.657Z,16.88
2022-12-03T07:55:39.837Z,16.88
2022-12-03T07:56:39.609Z,16.88
2022-12-03T07:57:42.870Z,16.88
2022-12-03T07:58:55.024Z,16.88
2022-12-03T07:59:42.602Z,16.88
2022-12-03T08:00:40.585Z,16.88
2022-12-03T08:01:39.889Z,16.88
2022-12-03T08:02:39.618Z,11.25
2022-12-03T08:03:40.814Z,11.25
2022-12-03T08:04:40.767Z,16.88
2022-12-03T08:05:39.493Z,16.88
2022-12-03T08:06:39.734Z,11.25
2022-12-03T08:07:39.512Z,16.88
2022-12-03T08:08:39.513Z,16.88
2022-12-03T08:09:39.699Z,16.88
2022-12-03T08:10:42.466Z,16.88
2022-12-03T08:11:39.735Z,16.88
2022-12-03T08:12:42.481Z,16.88
2022-12-03T08:13:42.689Z,16.88
2022-12-03T08:15:00.664Z,16.88
2022-12-03T08:15:40.413Z,16.88
2022-12-03T08:16:40.499Z,16.88
2022-12-03T08:17:39.635Z,16.88
2022-12-03T08:18:39.414Z,22.50
2022-12-03T08:19:39.352Z,22.50
2022-12-03T08:20:40.368Z,22.50
2022-12-03T08:21:39.340Z,22.50
2022-12-03T08:22:39.363Z,28.12
2022-12-03T08:23:40.312Z,22.50
2022-12-03T08:24:40.331Z,22.50
2022-12-03T08:25:39.303Z,22.50
2022-12-03T08:26:46.670Z,22.50
2022-12-03T08:27:39.295Z,22.50
2022-12-03T08:28:46.507Z,22.50
2022-12-03T08:29:42.264Z,22.50
2022-12-03T08:30:40.518Z,22.50
2022-12-03T08:31:39.281Z,22.50
2022-12-03T08:32:39.233Z,28.12
2022-12-03T08:33:39.232Z,28.12
2022-12-03T08:34:39.469Z,33.75
2022-12-03T08:35:42.205Z,33.75
2022-12-03T08:36:39.205Z,33.75
2022-12-03T08:37:42.453Z,39.38
2022-12-03T08:38:39.216Z,39.38
2022-12-03T08:39:40.156Z,45.00
2022-12-03T08:40:42.428Z,39.38
2022-12-03T08:41:42.463Z,39.38
2022-12-03T08:42:42.160Z,33.75
2022-12-03T08:43:39.158Z,33.75
2022-12-03T08:44:39.347Z,33.75
2022-12-03T08:45:39.126Z,33.75
2022-12-03T08:46:39.123Z,33.75
2022-12-03T08:47:39.086Z,39.38
2022-12-03T08:48:42.750Z,39.38
2022-12-03T08:49:40.325Z,39.38
2022-12-03T08:50:39.314Z,39.38
2022-12-03T08:51:40.068Z,39.38
2022-12-03T08:52:46.253Z,45.00
2022-12-03T08:53:39.042Z,45.00
2022-12-03T08:54:42.069Z,39.38
2022-12-03T08:55:42.237Z,39.38
2022-12-03T08:56:46.144Z,39.38
2022-12-03T08:58:03.263Z,39.38
2022-12-03T08:58:39.208Z,39.38
2022-12-03T08:59:42.685Z,39.38
2022-12-03T09:00:40.234Z,39.38
2022-12-03T09:01:39.269Z,39.38
2022-12-03T09:02:38.927Z,45.00
2022-12-03T09:03:39.005Z,45.00
2022-12-03T09:04:39.107Z,45.00
2022-12-03T09:05:40.152Z,45.00
2022-12-03T09:06:46.177Z,45.00
2022-12-03T09:07:38.963Z,50.62
2022-12-03T09:08:54.178Z,50.62
2022-12-03T09:09:38.900Z,50.62
2022-12-03T09:10:42.121Z,50.62
2022-12-03T09:11:39.128Z,50.62
2022-12-03T09:12:46.135Z,50.62
2022-12-03T09:13:41.879Z,50.62
2022-12-03T09:14:38.827Z,50.62
2022-12-03T09:15:39.057Z,56.25
2022-12-03T09:16:39.071Z,56.25
2022-12-03T09:17:39.022Z,56.25
2022-12-03T09:18:39.012Z,61.88
2022-12-03T09:19:44.325Z,61.88
2022-12-03T09:20:39.991Z,56.25
2022-12-03T09:21:38.741Z,56.25
2022-12-03T09:22:39.740Z,56.25
2022-12-03T09:23:38.975Z,50.62
2022-12-03T09:24:38.729Z,50.62
2022-12-03T09:25:41.989Z,50.62
2022-12-03T09:26:38.688Z,56.25
2022-12-03T09:28:02.708Z,45.00
2022-12-03T09:28:39.934Z,39.38
2022-12-03T09:29:38.904Z,45.00
2022-12-03T09:30:38.705Z,39.38
2022-12-03T09:31:41.979Z,33.75
2022-12-03T09:32:39.919Z,33.75
2022-12-03T09:33:38.622Z,33.75
2022-12-03T09:34:41.646Z,33.75
2022-12-03T09:35:38.624Z,33.75
2022-12-03T09:36:38.617Z,33.75
2022-12-03T09:37:39.821Z,33.75
2022-12-03T09:38:41.854Z,33.75
2022-12-03T09:39:42.833Z,33.75
2022-12-03T09:40:38.803Z,33.75
2022-12-03T09:41:41.574Z,28.12
2022-12-03T09:42:39.564Z,28.12
2022-12-03T09:44:46.664Z,28.12
2022-12-03T09:45:38.841Z,28.12
2022-12-03T09:46:38.494Z,28.12
2022-12-03T09:47:38.514Z,28.12
2022-12-03T09:48:38.481Z,33.75
2022-12-03T09:49:45.641Z,33.75
2022-12-03T09:50:45.557Z,39.38
2022-12-03T09:51:38.729Z,39.38
2022-12-03T09:52:38.717Z,39.38
2022-12-03T09:53:41.686Z,39.38
2022-12-03T09:54:42.798Z,39.38
2022-12-03T09:55:42.430Z,28.12
2022-12-03T09:56:38.650Z,28.12
2022-12-03T09:57:38.640Z,33.75
2022-12-03T09:58:38.652Z,33.75
2022-12-03T09:59:38.372Z,39.38
2022-12-03T10:00:45.608Z,33.75
2022-12-03T10:01:39.674Z,39.38
2022-12-03T10:02:38.397Z,39.38
2022-12-03T10:03:39.564Z,39.38
2022-12-03T10:04:38.380Z,45.00
2022-12-03T10:05:38.296Z,45.00
2022-12-03T10:06:59.311Z,45.00
2022-12-03T10:07:38.613Z,50.62
2022-12-03T10:08:59.313Z,45.00
2022-12-03T10:09:38.255Z,45.00
2022-12-03T10:10:39.273Z,45.00
2022-12-03T10:11:38.255Z,45.00
2022-12-03T10:12:38.289Z,50.62
2022-12-03T10:13:41.492Z,50.62
2022-12-03T10:14:38.251Z,50.62
2022-12-03T10:15:39.209Z,56.25
2022-12-03T10:16:39.281Z,56.25
2022-12-03T10:17:38.241Z,61.88
2022-12-03T10:18:45.662Z,61.88
2022-12-03T10:19:38.156Z,50.62
2022-12-03T10:20:38.233Z,50.62
2022-12-03T10:21:38.131Z,50.62
2022-12-03T10:22:38.386Z,61.88
2022-12-03T10:23:48.147Z,61.88
2022-12-03T10:24:38.365Z,56.25
2022-12-03T10:25:41.123Z,61.88
2022-12-03T10:26:38.463Z,67.50
2022-12-03T10:27:38.102Z,67.50
2022-12-03T10:28:39.111Z,61.88
2022-12-03T10:29:45.118Z,61.88
2022-12-03T10:30:41.409Z,61.88
2022-12-03T10:31:45.179Z,67.50
2022-12-03T10:32:38.047Z,73.12
2022-12-03T10:33:38.024Z,67.50
2022-12-03T10:34:41.044Z,67.50
2022-12-03T10:35:38.226Z,67.50
2022-12-03T10:36:39.021Z,73.12
2022-12-03T10:37:38.004Z,67.50
2022-12-03T10:38:45.236Z,67.50
2022-12-03T10:39:40.994Z,67.50
2022-12-03T10:40:48.368Z,61.88
2022-12-03T10:41:59.178Z,67.50
2022-12-03T10:42:37.932Z,73.12
2022-12-03T10:43:38.980Z,84.38
2022-12-03T10:44:41.222Z,78.75
2022-12-03T10:45:38.154Z,78.75
2022-12-03T10:46:38.072Z,78.75
2022-12-03T10:47:38.041Z,78.75
2022-12-03T10:48:37.904Z,78.75
2022-12-03T10:49:37.867Z,78.75
2022-12-03T10:50:37.827Z,84.38
2022-12-03T10:51:37.842Z,84.38
2022-12-03T10:52:37.847Z,84.38
2022-12-03T10:53:37.826Z,90.00
2022-12-03T10:54:37.813Z,90.00
2022-12-03T10:55:41.073Z,90.00
2022-12-03T10:56:37.789Z,90.00
2022-12-03T10:57:41.168Z,90.00
2022-12-03T10:58:38.797Z,90.00
2022-12-03T10:59:37.771Z,90.00
2022-12-03T11:00:38.011Z,90.00
2022-12-03T11:01:37.805Z,95.62
2022-12-03T11:02:38.761Z,101.25
2022-12-03T11:03:38.039Z,101.25
2022-12-03T11:04:37.761Z,101.25
2022-12-03T11:05:37.720Z,101.25
2022-12-03T11:06:40.947Z,101.25
2022-12-03T11:07:58.964Z,101.25
2022-12-03T11:08:37.921Z,101.25
2022-12-03T11:09:37.696Z,95.62
2022-12-03T11:10:40.935Z,95.62
2022-12-03T11:11:37.878Z,95.62
2022-12-03T11:12:37.642Z,95.62
2022-12-03T11:13:37.622Z,101.25
2022-12-03T11:14:37.677Z,101.25
2022-12-03T11:15:37.892Z,101.25
2022-12-03T11:16:40.631Z,95.62
2022-12-03T11:17:37.606Z,95.62
2022-12-03T11:18:37.627Z,84.38
2022-12-03T11:19:37.582Z,78.75
2022-12-03T11:20:37.589Z,78.75
2022-12-03T11:21:38.084Z,78.75
2022-12-03T11:22:38.563Z,78.75
2022-12-03T11:23:40.549Z,78.75
2022-12-03T11:24:37.537Z,73.12
2022-12-03T11:25:37.549Z,67.50
2022-12-03T11:26:37.510Z,67.50
2022-12-03T11:27:40.537Z,67.50
2022-12-03T11:28:37.712Z,73.12
2022-12-03T11:29:37.709Z,78.75
2022-12-03T11:30:37.482Z,78.75
2022-12-03T11:31:37.821Z,84.38
2022-12-03T11:32:37.734Z,78.75
2022-12-03T11:33:45.608Z,78.75
2022-12-03T11:34:37.660Z,78.75
2022-12-03T11:35:37.421Z,84.38
2022-12-03T11:37:01.065Z,90.00
2022-12-03T11:37:41.423Z,84.38
2022-12-03T11:38:50.694Z,84.38
2022-12-03T11:39:39.590Z,84.38
2022-12-03T11:40:39.737Z,84.38
2022-12-03T11:41:44.843Z,84.38
2022-12-03T11:42:40.611Z,84.38
2022-12-03T11:43:37.342Z,84.38
2022-12-03T11:44:40.358Z,84.38
2022-12-03T11:45:37.580Z,90.00
2022-12-03T11:46:37.398Z,84.38
2022-12-03T11:47:37.276Z,84.38
2022-12-03T11:48:44.700Z,84.38
2022-12-03T11:49:59.536Z,78.75
2022-12-03T11:50:44.754Z,78.75
2022-12-03T11:51:37.496Z,84.38
2022-12-03T11:52:37.219Z,78.75
2022-12-03T11:53:37.218Z,78.75
2022-12-03T11:54:38.222Z,78.75
2022-12-03T11:55:37.459Z,78.75
2022-12-03T11:56:37.189Z,84.38
2022-12-03T11:57:37.395Z,84.38
2022-12-03T11:58:37.393Z,78.75
2022-12-03T11:59:37.404Z,84.38
2022-12-03T12:00:37.169Z,90.00
2022-12-03T12:01:39.145Z,90.00
2022-12-03T12:02:37.275Z,90.00
2022-12-03T12:03:38.546Z,90.00
2022-12-03T12:04:37.448Z,95.62
2022-12-03T12:05:37.139Z,95.62
2022-12-03T12:06:37.321Z,90.00
2022-12-03T12:07:37.433Z,84.38
2022-12-03T12:08:37.294Z,78.75
2022-12-03T12:09:37.064Z,78.75
2022-12-03T12:10:38.052Z,78.75
2022-12-03T12:11:37.037Z,84.38
2022-12-03T12:12:37.051Z,78.75
2022-12-03T12:13:37.264Z,78.75
2022-12-03T12:14:38.093Z,73.12
2022-12-03T12:15:40.036Z,73.12
2022-12-03T12:16:37.344Z,78.75
2022-12-03T12:17:37.230Z,78.75
2022-12-03T12:18:37.224Z,73.12
2022-12-03T12:19:45.657Z,73.12
2022-12-03T12:20:37.199Z,73.12
2022-12-03T12:21:37.216Z,73.12
2022-12-03T12:22:37.208Z,67.50
2022-12-03T12:23:39.937Z,67.50
2022-12-03T12:24:36.906Z,67.50
2022-12-03T12:25:37.126Z,67.50
2022-12-03T12:26:37.147Z,67.50
2022-12-03T12:27:36.905Z,61.88
2022-12-03T12:28:38.424Z,61.88
2022-12-03T12:29:38.133Z,61.88
2022-12-03T12:30:37.086Z,61.88
2022-12-03T12:31:37.126Z,61.88
2022-12-03T12:32:38.063Z,61.88
2022-12-03T12:33:36.887Z,56.25
2022-12-03T12:34:36.804Z,56.25
2022-12-03T12:35:36.825Z,56.25
2022-12-03T12:36:37.847Z,56.25
2022-12-03T12:37:36.816Z,56.25
2022-12-03T12:38:36.777Z,56.25
2022-12-03T12:39:37.781Z,56.25
2022-12-03T12:40:43.817Z,50.62
2022-12-03T12:41:37.744Z,50.62
2022-12-03T12:42:37.005Z,50.62
2022-12-03T12:43:36.753Z,50.62
2022-12-03T12:44:39.759Z,50.62
2022-12-03T12:45:36.697Z,50.62
2022-12-03T12:46:47.835Z,50.62
2022-12-03T12:47:37.766Z,50.62
2022-12-03T12:48:36.931Z,50.62
2022-12-03T12:49:36.656Z,50.62
2022-12-03T12:50:36.660Z,50.62
2022-12-03T12:51:43.787Z,50.62
2022-12-03T12:52:37.643Z,50.62
2022-12-03T12:53:36.638Z,50.62
2022-12-03T12:54:36.620Z,50.62
2022-12-03T12:55:36.605Z,50.62
2022-12-03T12:56:43.820Z,50.62
2022-12-03T12:57:36.823Z,45.00
2022-12-03T12:58:36.819Z,50.62
2022-12-03T12:59:36.546Z,45.00
2022-12-03T13:00:37.685Z,45.00
2022-12-03T13:01:39.707Z,45.00
2022-12-03T13:02:36.621Z,45.00
2022-12-03T13:03:36.780Z,45.00
2022-12-03T13:04:39.549Z,45.00
2022-12-03T13:05:36.726Z,45.00
2022-12-03T13:06:36.735Z,45.00
2022-12-03T13:07:52.039Z,45.00